createdAt,value
2018-08-22T00:00:23.851Z,28.18
2018-08-22T00:01:04.709Z,28.21
2018-08-22T00:01:45.555Z,28.19
2018-08-22T00:02:26.349Z,28.18
2018-08-22T00:03:07.085Z,28.21
2018-08-22T00:03:47.874Z,28.18
2018-08-22T00:04:28.577Z,28.14
2018-08-22T00:05:09.410Z,28.12
2018-08-22T00:05:50.226Z,28.17
2018-08-22T00:06:31.024Z,28.15
2018-08-22T00:07:11.799Z,28.17
2018-08-22T00:07:52.629Z,28.14
2018-08-22T00:08:33.433Z,28.17
2018-08-22T00:09:14.237Z,28.15
2018-08-22T00:09:54.931Z,28.14
2018-08-22T00:10:35.772Z,28.12
2018-08-22T00:11:16.530Z,28.11
2018-08-22T00:11:57.307Z,28.15
2018-08-22T00:12:38.092Z,28.17
2018-08-22T00:13:18.846Z,28.15
2018-08-22T00:13:59.662Z,28.15
2018-08-22T00:14:40.484Z,28.11
2018-08-22T00:15:21.279Z,28.12
2018-08-22T00:16:02.119Z,28.12
2018-08-22T00:16:42.946Z,28.11
2018-08-22T00:17:23.834Z,28.11
2018-08-22T00:18:04.626Z,28.12
2018-08-22T00:18:45.347Z,28.09
2018-08-22T00:19:26.062Z,28.12
2018-08-22T00:20:06.828Z,28.14
2018-08-22T00:20:47.706Z,28.09
2018-08-22T00:21:28.582Z,28.14
2018-08-22T00:22:09.392Z,28.14
2018-08-22T00:22:50.167Z,28.19
2018-08-22T00:23:30.938Z,28.12
2018-08-22T00:24:11.755Z,28.11
2018-08-22T00:24:52.546Z,28.14
2018-08-22T00:25:33.283Z,28.12
2018-08-22T00:26:14.015Z,28.11
2018-08-22T00:26:54.899Z,28.11
2018-08-22T00:27:35.611Z,28.11
2018-08-22T00:28:16.374Z,28.11
2018-08-22T00:28:57.150Z,28.06
2018-08-22T00:29:37.979Z,28.09
2018-08-22T00:30:18.790Z,28.14
2018-08-22T00:30:59.691Z,28.11
2018-08-22T00:31:40.396Z,28.09
2018-08-22T00:32:21.188Z,28.09
2018-08-22T00:33:02.004Z,28.12
2018-08-22T00:33:42.739Z,28.17
2018-08-22T00:34:23.458Z,28.09
2018-08-22T00:35:04.240Z,28.14
2018-08-22T00:35:45.033Z,28.14
2018-08-22T00:36:25.854Z,28.12
2018-08-22T00:37:06.678Z,28.12
2018-08-22T00:37:47.533Z,28.12
2018-08-22T00:38:28.334Z,28.14
2018-08-22T00:39:09.066Z,28.12
2018-08-22T00:39:49.819Z,28.15
2018-08-22T00:40:30.647Z,28.17
2018-08-22T00:41:11.453Z,28.11
2018-08-22T00:41:52.153Z,28.04
2018-08-22T00:42:33.017Z,28.07
2018-08-22T00:43:13.834Z,28.15
2018-08-22T00:43:54.698Z,28.15
2018-08-22T00:44:35.438Z,28.15
2018-08-22T00:45:16.213Z,28.12
2018-08-22T00:45:57.086Z,28.07
2018-08-22T00:46:37.871Z,28.15
2018-08-22T00:47:18.621Z,28.15
2018-08-22T00:47:59.341Z,28.11
2018-08-22T00:48:40.112Z,28.17
2018-08-22T00:49:20.939Z,28.15
2018-08-22T00:50:01.733Z,28.17
2018-08-22T00:50:42.441Z,28.07
2018-08-22T00:51:23.329Z,28.12
2018-08-22T00:52:04.150Z,28.12
2018-08-22T00:52:44.979Z,28.12
2018-08-22T00:53:25.751Z,28.14
2018-08-22T00:54:06.523Z,28.11
2018-08-22T00:54:47.254Z,28.04
2018-08-22T00:55:28.058Z,28.09
2018-08-22T00:56:08.885Z,28.03
2018-08-22T00:56:49.729Z,28.11
2018-08-22T00:57:30.512Z,28.17
2018-08-22T00:58:11.255Z,28.02
2018-08-22T00:58:52.105Z,28.11
2018-08-22T00:59:32.911Z,28.03
2018-08-22T01:00:13.995Z,28.04
2018-08-22T01:00:55.126Z,28.12
2018-08-22T01:01:35.917Z,28.06
2018-08-22T01:02:16.765Z,28.14
2018-08-22T01:02:57.605Z,28.15
2018-08-22T01:03:38.434Z,28.14
2018-08-22T01:04:19.188Z,28.06
2018-08-22T01:04:59.953Z,28.06
2018-08-22T01:05:40.672Z,28.04
2018-08-22T01:06:21.552Z,28.03
2018-08-22T01:07:02.338Z,28.03
2018-08-22T01:07:43.053Z,28.09
2018-08-22T01:08:23.892Z,28.06
2018-08-22T01:09:04.669Z,28.06
2018-08-22T01:09:45.573Z,28
2018-08-22T01:10:26.333Z,28.03
2018-08-22T01:11:07.016Z,28.11
2018-08-22T01:11:47.789Z,28
2018-08-22T01:12:28.545Z,28.03
2018-08-22T01:13:09.401Z,28
2018-08-22T01:13:50.248Z,28.09
2018-08-22T01:14:31.089Z,28.06
2018-08-22T01:15:11.804Z,28.03
2018-08-22T01:15:52.615Z,28.03
2018-08-22T01:16:33.432Z,27.93
2018-08-22T01:17:14.163Z,27.99
2018-08-22T01:17:54.904Z,27.92
2018-08-22T01:18:35.650Z,27.94
2018-08-22T01:19:16.423Z,27.99
2018-08-22T01:19:57.258Z,27.94
2018-08-22T01:20:38.016Z,27.99
2018-08-22T01:21:18.791Z,27.97
2018-08-22T01:21:59.656Z,27.99
2018-08-22T01:22:40.531Z,27.9
2018-08-22T01:23:21.333Z,27.96
2018-08-22T01:24:02.084Z,27.94
2018-08-22T01:24:42.883Z,27.96
2018-08-22T01:25:23.720Z,27.96
2018-08-22T01:26:04.450Z,27.94
2018-08-22T01:26:45.200Z,27.99
2018-08-22T01:27:25.962Z,27.88
2018-08-22T01:28:06.852Z,27.94
2018-08-22T01:28:47.635Z,27.92
2018-08-22T01:29:28.466Z,27.81
2018-08-22T01:30:09.215Z,27.87
2018-08-22T01:30:49.963Z,27.92
2018-08-22T01:31:30.712Z,27.92
2018-08-22T01:32:11.514Z,27.9
2018-08-22T01:32:52.345Z,27.9
2018-08-22T01:33:33.078Z,27.94
2018-08-22T01:34:13.826Z,27.88
2018-08-22T01:34:54.661Z,27.93
2018-08-22T01:35:35.446Z,27.92
2018-08-22T01:36:16.320Z,27.81
2018-08-22T01:36:57.088Z,27.9
2018-08-22T01:37:37.807Z,27.92
2018-08-22T01:38:18.542Z,27.84
2018-08-22T01:38:59.307Z,27.85
2018-08-22T01:39:40.154Z,27.82
2018-08-22T01:40:20.981Z,27.9
2018-08-22T01:41:01.770Z,27.81
2018-08-22T01:41:42.495Z,27.81
2018-08-22T01:42:23.380Z,27.79
2018-08-22T01:43:04.180Z,27.82
2018-08-22T01:43:44.875Z,27.77
2018-08-22T01:44:25.633Z,27.85
2018-08-22T01:45:06.385Z,27.79
2018-08-22T01:45:47.276Z,27.75
2018-08-22T01:46:28.079Z,27.74
2018-08-22T01:47:08.900Z,27.79
2018-08-22T01:47:49.730Z,27.77
2018-08-22T01:48:30.466Z,27.79
2018-08-22T01:49:11.222Z,27.81
2018-08-22T01:49:52.012Z,27.72
2018-08-22T01:50:32.852Z,27.79
2018-08-22T01:51:13.625Z,27.77
2018-08-22T01:51:54.432Z,27.66
2018-08-22T01:52:35.273Z,27.77
2018-08-22T01:53:16.093Z,27.72
2018-08-22T01:53:56.879Z,27.66
2018-08-22T01:54:37.626Z,27.67
2018-08-22T01:55:18.405Z,27.63
2018-08-22T01:55:59.264Z,27.59
2018-08-22T01:56:39.999Z,27.67
2018-08-22T01:57:20.759Z,27.62
2018-08-22T01:58:01.498Z,27.62
2018-08-22T01:58:42.340Z,27.59
2018-08-22T01:59:23.090Z,27.55
2018-08-22T02:00:03.836Z,27.65
2018-08-22T02:00:44.581Z,27.6
2018-08-22T02:01:25.419Z,27.57
2018-08-22T02:02:06.263Z,27.54
2018-08-22T02:02:47.032Z,27.59
2018-08-22T02:03:27.885Z,27.59
2018-08-22T02:04:08.610Z,27.55
2018-08-22T02:04:49.370Z,27.6
2018-08-22T02:05:30.187Z,27.59
2018-08-22T02:06:10.987Z,27.62
2018-08-22T02:06:51.794Z,27.57
2018-08-22T02:07:32.532Z,27.6
2018-08-22T02:08:13.307Z,27.57
2018-08-22T02:08:54.154Z,27.59
2018-08-22T02:09:34.926Z,27.55
2018-08-22T02:10:15.672Z,27.57
2018-08-22T02:10:56.408Z,27.57
2018-08-22T02:11:37.219Z,27.54
2018-08-22T02:12:18.031Z,27.57
2018-08-22T02:12:58.894Z,27.57
2018-08-22T02:13:39.654Z,27.63
2018-08-22T02:14:20.350Z,27.55
2018-08-22T02:15:01.107Z,27.55
2018-08-22T02:15:41.893Z,27.57
2018-08-22T02:16:22.776Z,27.54
2018-08-22T02:17:03.519Z,27.55
2018-08-22T02:17:44.270Z,27.55
2018-08-22T02:18:25.133Z,27.6
2018-08-22T02:19:05.911Z,27.54
2018-08-22T02:19:46.751Z,27.54
2018-08-22T02:20:27.489Z,27.57
2018-08-22T02:21:08.241Z,27.51
2018-08-22T02:21:48.966Z,27.55
2018-08-22T02:22:29.748Z,27.57
2018-08-22T02:23:10.585Z,27.57
2018-08-22T02:23:51.416Z,27.54
2018-08-22T02:24:32.166Z,27.55
2018-08-22T02:25:12.963Z,27.57
2018-08-22T02:25:53.744Z,27.6
2018-08-22T02:26:34.543Z,27.54
2018-08-22T02:27:15.327Z,27.59
2018-08-22T02:27:56.035Z,27.62
2018-08-22T02:28:36.810Z,27.54
2018-08-22T02:29:17.671Z,27.5
2018-08-22T02:29:58.376Z,27.5
2018-08-22T02:30:39.166Z,27.65
2018-08-22T02:31:20.079Z,27.55
2018-08-22T02:32:00.855Z,27.54
2018-08-22T02:32:41.712Z,27.62
2018-08-22T02:33:22.410Z,27.65
2018-08-22T02:34:03.218Z,27.55
2018-08-22T02:34:44.105Z,27.57
2018-08-22T02:35:24.871Z,27.62
2018-08-22T02:36:05.630Z,27.59
2018-08-22T02:36:46.339Z,27.54
2018-08-22T02:37:27.076Z,27.59
2018-08-22T02:38:07.927Z,27.57
2018-08-22T02:38:48.735Z,27.5
2018-08-22T02:39:29.598Z,27.59
2018-08-22T02:40:10.365Z,27.5
2018-08-22T02:40:51.105Z,27.51
2018-08-22T02:41:31.892Z,27.51
2018-08-22T02:42:12.743Z,27.49
2018-08-22T02:42:53.501Z,27.47
2018-08-22T02:43:34.260Z,27.55
2018-08-22T02:44:15.154Z,27.49
2018-08-22T02:44:55.973Z,27.47
2018-08-22T02:45:36.859Z,27.46
2018-08-22T02:46:17.591Z,27.47
2018-08-22T02:46:58.370Z,27.43
2018-08-22T02:47:39.179Z,27.39
2018-08-22T02:48:20.020Z,27.4
2018-08-22T02:49:00.800Z,27.39
2018-08-22T02:49:41.539Z,27.4
2018-08-22T02:50:22.351Z,27.41
2018-08-22T02:51:03.193Z,27.4
2018-08-22T02:51:43.985Z,27.41
2018-08-22T02:52:24.712Z,27.34
2018-08-22T02:53:05.529Z,27.4
2018-08-22T02:53:46.343Z,27.36
2018-08-22T02:54:27.211Z,27.32
2018-08-22T02:55:08.000Z,27.37
2018-08-22T02:55:48.745Z,27.39
2018-08-22T02:56:30.024Z,27.31
2018-08-22T02:57:10.856Z,27.36
2018-08-22T02:57:51.670Z,27.32
2018-08-22T02:58:32.440Z,27.32
2018-08-22T02:59:13.278Z,27.32
2018-08-22T02:59:54.032Z,27.31
2018-08-22T03:00:34.837Z,27.36
2018-08-22T03:01:15.684Z,27.32
2018-08-22T03:01:56.452Z,27.28
2018-08-22T03:02:37.207Z,27.34
2018-08-22T03:03:17.929Z,27.29
2018-08-22T03:03:58.750Z,27.27
2018-08-22T03:04:39.555Z,27.31
2018-08-22T03:05:20.326Z,27.32
2018-08-22T03:06:01.117Z,27.25
2018-08-22T03:06:41.981Z,27.22
2018-08-22T03:07:22.786Z,27.28
2018-08-22T03:08:03.559Z,27.36
2018-08-22T03:08:44.332Z,27.24
2018-08-22T03:09:25.155Z,27.31
2018-08-22T03:10:06.011Z,27.31
2018-08-22T03:10:46.767Z,27.29
2018-08-22T03:11:27.506Z,27.36
2018-08-22T03:12:08.281Z,27.34
2018-08-22T03:12:49.045Z,27.24
2018-08-22T03:13:29.977Z,27.27
2018-08-22T03:14:10.817Z,27.22
2018-08-22T03:14:51.610Z,27.31
2018-08-22T03:15:32.323Z,27.32
2018-08-22T03:16:13.030Z,27.31
2018-08-22T03:16:53.828Z,27.27
2018-08-22T03:17:34.628Z,27.29
2018-08-22T03:18:15.368Z,27.21
2018-08-22T03:18:56.236Z,27.24
2018-08-22T03:19:37.140Z,27.19
2018-08-22T03:20:17.895Z,27.22
2018-08-22T03:20:58.763Z,27.22
2018-08-22T03:21:39.543Z,27.19
2018-08-22T03:22:20.290Z,27.14
2018-08-22T03:23:01.096Z,27.21
2018-08-22T03:23:41.928Z,27.24
2018-08-22T03:24:22.730Z,27.13
2018-08-22T03:25:03.599Z,27.22
2018-08-22T03:25:44.339Z,27.21
2018-08-22T03:26:25.176Z,27.19
2018-08-22T03:27:06.082Z,27.19
2018-08-22T03:27:46.855Z,27.17
2018-08-22T03:28:27.615Z,27.19
2018-08-22T03:29:08.399Z,27.13
2018-08-22T03:29:49.363Z,27.14
2018-08-22T03:30:30.191Z,27.17
2018-08-22T03:31:11.024Z,27.27
2018-08-22T03:31:51.879Z,27.22
2018-08-22T03:32:32.596Z,27.17
2018-08-22T03:33:13.378Z,27.21
2018-08-22T03:33:54.164Z,27.25
2018-08-22T03:34:34.974Z,27.21
2018-08-22T03:35:15.823Z,27.22
2018-08-22T03:35:56.538Z,27.12
2018-08-22T03:36:37.316Z,27.18
2018-08-22T03:37:18.145Z,27.19
2018-08-22T03:37:58.952Z,27.14
2018-08-22T03:38:39.693Z,27.1
2018-08-22T03:39:20.549Z,27.14
2018-08-22T03:40:01.342Z,27.13
2018-08-22T03:40:42.105Z,27.14
2018-08-22T03:41:22.831Z,27.12
2018-08-22T03:42:03.541Z,27.13
2018-08-22T03:42:44.292Z,27.03
2018-08-22T03:43:25.135Z,27.1
2018-08-22T03:44:05.904Z,27.12
2018-08-22T03:44:46.710Z,27.06
2018-08-22T03:45:27.493Z,27.09
2018-08-22T03:46:08.328Z,27.09
2018-08-22T03:46:49.273Z,27.09
2018-08-22T03:47:29.990Z,27.09
2018-08-22T03:48:10.764Z,27.07
2018-08-22T03:48:51.526Z,26.99
2018-08-22T03:49:32.315Z,27.1
2018-08-22T03:50:13.177Z,27.09
2018-08-22T03:50:53.975Z,27.02
2018-08-22T03:51:34.776Z,26.99
2018-08-22T03:52:15.576Z,27.02
2018-08-22T03:52:56.370Z,27.02
2018-08-22T03:53:37.185Z,27.07
2018-08-22T03:54:17.956Z,27.06
2018-08-22T03:54:58.687Z,27
2018-08-22T03:55:39.445Z,27.03
2018-08-22T03:56:20.250Z,27.02
2018-08-22T03:57:01.055Z,27.03
2018-08-22T03:57:41.907Z,27.07
2018-08-22T03:58:22.642Z,26.99
2018-08-22T03:59:03.363Z,27.07
2018-08-22T03:59:44.090Z,27
2018-08-22T04:00:24.899Z,27.03
2018-08-22T04:01:05.733Z,27.06
2018-08-22T04:01:46.427Z,27.07
2018-08-22T04:02:27.220Z,27.02
2018-08-22T04:03:08.124Z,27.13
2018-08-22T04:03:49.001Z,27.07
2018-08-22T04:04:29.722Z,27.07
2018-08-22T04:05:10.456Z,27.04
2018-08-22T04:05:51.211Z,27.07
2018-08-22T04:06:31.963Z,27.07
2018-08-22T04:07:12.785Z,27.09
2018-08-22T04:07:53.600Z,27
2018-08-22T04:08:34.471Z,27.03
2018-08-22T04:09:15.225Z,27.06
2018-08-22T04:09:55.986Z,27.12
2018-08-22T04:10:36.822Z,27.03
2018-08-22T04:11:17.552Z,26.99
2018-08-22T04:11:58.320Z,27.07
2018-08-22T04:12:39.022Z,27
2018-08-22T04:13:19.790Z,26.99
2018-08-22T04:14:00.622Z,27.06
2018-08-22T04:14:41.364Z,27.03
2018-08-22T04:15:22.142Z,27
2018-08-22T04:16:02.969Z,27
2018-08-22T04:16:43.782Z,27
2018-08-22T04:17:24.617Z,27.13
2018-08-22T04:18:05.379Z,27.06
2018-08-22T04:18:46.160Z,27.03
2018-08-22T04:19:26.977Z,27.07
2018-08-22T04:20:07.719Z,27.02
2018-08-22T04:20:48.497Z,27.06
2018-08-22T04:21:29.224Z,26.97
2018-08-22T04:22:10.012Z,26.97
2018-08-22T04:22:50.855Z,26.92
2018-08-22T04:23:31.695Z,27.06
2018-08-22T04:24:12.478Z,26.92
2018-08-22T04:24:53.240Z,26.92
2018-08-22T04:25:33.988Z,26.97
2018-08-22T04:26:14.827Z,26.97
2018-08-22T04:26:55.629Z,26.95
2018-08-22T04:27:36.407Z,26.97
2018-08-22T04:28:17.153Z,26.92
2018-08-22T04:28:58.009Z,26.91
2018-08-22T04:29:38.867Z,27.02
2018-08-22T04:30:19.709Z,27.03
2018-08-22T04:31:00.448Z,26.99
2018-08-22T04:31:41.233Z,26.91
2018-08-22T04:32:22.035Z,26.99
2018-08-22T04:33:02.829Z,26.89
2018-08-22T04:33:43.670Z,26.92
2018-08-22T04:34:24.498Z,26.94
2018-08-22T04:35:05.298Z,26.95
2018-08-22T04:35:46.024Z,26.89
2018-08-22T04:36:26.845Z,26.88
2018-08-22T04:37:07.605Z,26.87
2018-08-22T04:37:48.351Z,26.89
2018-08-22T04:38:29.107Z,26.89
2018-08-22T04:39:09.921Z,26.89
2018-08-22T04:39:50.827Z,26.88
2018-08-22T04:40:31.631Z,26.92
2018-08-22T04:41:12.457Z,26.95
2018-08-22T04:41:53.170Z,26.89
2018-08-22T04:42:33.924Z,26.88
2018-08-22T04:43:14.640Z,26.97
2018-08-22T04:43:55.442Z,26.95
2018-08-22T04:44:36.269Z,27
2018-08-22T04:45:17.042Z,26.89
2018-08-22T04:45:57.778Z,26.89
2018-08-22T04:46:38.652Z,26.95
2018-08-22T04:47:19.455Z,26.94
2018-08-22T04:48:00.229Z,26.92
2018-08-22T04:48:40.965Z,27.03
2018-08-22T04:49:21.787Z,26.91
2018-08-22T04:50:02.605Z,26.92
2018-08-22T04:50:43.361Z,26.88
2018-08-22T04:51:24.122Z,26.91
2018-08-22T04:52:04.901Z,26.91
2018-08-22T04:52:45.752Z,26.91
2018-08-22T04:53:26.575Z,26.99
2018-08-22T04:54:07.357Z,26.91
2018-08-22T04:54:48.183Z,26.97
2018-08-22T04:55:29.030Z,26.94
2018-08-22T04:56:09.891Z,26.89
2018-08-22T04:56:50.610Z,26.95
2018-08-22T04:57:31.318Z,26.94
2018-08-22T04:58:12.027Z,26.91
2018-08-22T04:58:52.840Z,26.88
2018-08-22T04:59:33.715Z,26.91
2018-08-22T05:00:14.539Z,26.97
2018-08-22T05:00:55.379Z,26.99
2018-08-22T05:01:36.120Z,26.88
2018-08-22T05:02:16.883Z,26.92
2018-08-22T05:02:57.763Z,26.97
2018-08-22T05:03:38.494Z,26.94
2018-08-22T05:04:19.243Z,26.91
2018-08-22T05:05:00.024Z,26.92
2018-08-22T05:05:40.851Z,26.91
2018-08-22T05:06:21.667Z,26.94
2018-08-22T05:07:02.437Z,26.94
2018-08-22T05:07:43.181Z,26.95
2018-08-22T05:08:24.051Z,26.95
2018-08-22T05:09:04.849Z,26.89
2018-08-22T05:09:45.626Z,26.91
2018-08-22T05:10:26.386Z,26.97
2018-08-22T05:11:07.187Z,27
2018-08-22T05:11:48.019Z,26.91
2018-08-22T05:12:28.811Z,26.95
2018-08-22T05:13:09.554Z,26.91
2018-08-22T05:13:50.307Z,26.88
2018-08-22T05:14:31.162Z,26.97
2018-08-22T05:15:11.998Z,26.91
2018-08-22T05:15:52.804Z,26.95
2018-08-22T05:16:33.562Z,26.94
2018-08-22T05:17:14.301Z,26.91
2018-08-22T05:17:55.052Z,26.97
2018-08-22T05:18:35.813Z,26.94
2018-08-22T05:19:16.624Z,26.95
2018-08-22T05:19:57.339Z,26.88
2018-08-22T05:20:38.115Z,26.94
2018-08-22T05:21:18.944Z,26.95
2018-08-22T05:21:59.739Z,27
2018-08-22T05:22:40.562Z,27
2018-08-22T05:23:21.359Z,26.99
2018-08-22T05:24:02.136Z,27.02
2018-08-22T05:24:42.993Z,27.02
2018-08-22T05:25:23.704Z,27.02
2018-08-22T05:26:04.463Z,26.97
2018-08-22T05:26:45.176Z,27.04
2018-08-22T05:27:25.979Z,27
2018-08-22T05:28:06.842Z,27.02
2018-08-22T05:28:47.551Z,27.02
2018-08-22T05:29:28.302Z,27.03
2018-08-22T05:30:09.193Z,26.99
2018-08-22T05:30:50.043Z,26.99
2018-08-22T05:31:30.832Z,26.95
2018-08-22T05:32:11.583Z,27
2018-08-22T05:32:52.403Z,26.99
2018-08-22T05:33:33.172Z,27.03
2018-08-22T05:34:14.001Z,27.04
2018-08-22T05:34:54.863Z,27.02
2018-08-22T05:35:35.701Z,27.02
2018-08-22T05:36:16.428Z,27.03
2018-08-22T05:36:57.272Z,27.04
2018-08-22T05:37:38.093Z,27.07
2018-08-22T05:38:18.878Z,26.97
2018-08-22T05:38:59.627Z,27.06
2018-08-22T05:39:40.391Z,27.03
2018-08-22T05:40:21.184Z,27.02
2018-08-22T05:41:02.057Z,27.04
2018-08-22T05:41:42.886Z,27.12
2018-08-22T05:42:23.663Z,27.02
2018-08-22T05:43:04.456Z,27.02
2018-08-22T05:43:45.243Z,27.07
2018-08-22T05:44:25.979Z,27.03
2018-08-22T05:45:06.840Z,27.1
2018-08-22T05:45:47.602Z,27.04
2018-08-22T05:46:28.368Z,27.09
2018-08-22T05:47:09.187Z,26.99
2018-08-22T05:47:49.983Z,27.07
2018-08-22T05:48:30.803Z,27.1
2018-08-22T05:49:11.626Z,27.06
2018-08-22T05:49:52.388Z,27.04
2018-08-22T05:50:33.175Z,27.12
2018-08-22T05:51:13.937Z,27.06
2018-08-22T05:51:54.803Z,27.09
2018-08-22T05:52:35.586Z,27.02
2018-08-22T05:53:16.412Z,27.12
2018-08-22T05:53:57.164Z,27.04
2018-08-22T05:54:38.052Z,27.04
2018-08-22T05:55:18.931Z,27.06
2018-08-22T05:55:59.718Z,27.12
2018-08-22T05:56:40.448Z,27.1
2018-08-22T05:57:21.197Z,27.12
2018-08-22T05:58:02.064Z,27.1
2018-08-22T05:58:42.869Z,27.12
2018-08-22T05:59:23.592Z,27.18
2018-08-22T06:00:04.358Z,27.17
2018-08-22T06:00:45.201Z,27.18
2018-08-22T06:01:26.008Z,27.14
2018-08-22T06:02:06.838Z,27.1
2018-08-22T06:02:47.612Z,27.22
2018-08-22T06:03:28.589Z,27.21
2018-08-22T06:04:09.327Z,27.22
2018-08-22T06:04:50.080Z,27.24
2018-08-22T06:05:30.841Z,27.19
2018-08-22T06:06:11.648Z,27.17
2018-08-22T06:06:52.485Z,27.27
2018-08-22T06:07:33.392Z,27.21
2018-08-22T06:08:14.245Z,27.29
2018-08-22T06:08:54.983Z,27.22
2018-08-22T06:09:36.421Z,27.29
2018-08-22T06:10:17.156Z,27.28
2018-08-22T06:10:57.930Z,27.24
2018-08-22T06:11:38.824Z,27.22
2018-08-22T06:12:19.537Z,27.31
2018-08-22T06:13:00.386Z,27.25
2018-08-22T06:13:41.273Z,27.31
2018-08-22T06:14:22.074Z,27.27
2018-08-22T06:15:02.913Z,27.36
2018-08-22T06:15:43.684Z,27.37
2018-08-22T06:16:24.433Z,27.32
2018-08-22T06:17:05.217Z,27.34
2018-08-22T06:17:46.070Z,27.36
2018-08-22T06:18:26.935Z,27.34
2018-08-22T06:19:07.863Z,27.36
2018-08-22T06:19:48.594Z,27.36
2018-08-22T06:20:29.561Z,27.41
2018-08-22T06:21:10.357Z,27.37
2018-08-22T06:21:51.106Z,27.36
2018-08-22T06:22:31.886Z,27.41
2018-08-22T06:23:12.627Z,27.4
2018-08-22T06:23:53.409Z,27.41
2018-08-22T06:24:34.272Z,27.5
2018-08-22T06:25:15.081Z,27.66
2018-08-22T06:25:55.891Z,27.84
2018-08-22T06:26:36.617Z,27.97
2018-08-22T06:27:17.340Z,28.39
2018-08-22T06:27:58.129Z,28.8
2018-08-22T06:28:38.940Z,29.23
2018-08-22T06:29:19.681Z,29.53
2018-08-22T06:30:00.433Z,29.92
2018-08-22T06:30:41.273Z,30.19
2018-08-22T06:31:22.140Z,30.51
2018-08-22T06:32:02.965Z,30.76
2018-08-22T06:32:43.702Z,30.97
2018-08-22T06:33:24.462Z,31.21
2018-08-22T06:34:05.268Z,31.43
2018-08-22T06:34:46.023Z,31.8
2018-08-22T06:35:26.804Z,31.93
2018-08-22T06:36:07.574Z,32.08
2018-08-22T06:36:48.400Z,32.26
2018-08-22T06:37:29.181Z,32.47
2018-08-22T06:38:09.870Z,32.63
2018-08-22T06:38:50.683Z,32.93
2018-08-22T06:39:31.454Z,33.03
2018-08-22T06:40:12.264Z,33.14
2018-08-22T06:40:53.068Z,33.37
2018-08-22T06:41:33.798Z,33.49
2018-08-22T06:42:14.517Z,33.59
2018-08-22T06:42:55.295Z,33.65
2018-08-22T06:43:36.140Z,33.82
2018-08-22T06:44:17.004Z,33.93
2018-08-22T06:44:57.816Z,34
2018-08-22T06:45:38.548Z,34.1
2018-08-22T06:46:19.301Z,34.25
2018-08-22T06:47:00.228Z,34.42
2018-08-22T06:47:41.036Z,34.58
2018-08-22T06:48:21.790Z,34.56
2018-08-22T06:49:02.534Z,34.72
2018-08-22T06:49:43.288Z,34.75
2018-08-22T06:50:24.115Z,34.89
2018-08-22T06:51:04.890Z,34.92
2018-08-22T06:51:45.724Z,35.15
2018-08-22T06:52:26.536Z,35.21
2018-08-22T06:53:07.262Z,35.31
2018-08-22T06:53:48.012Z,35.36
2018-08-22T06:54:28.887Z,35.33
2018-08-22T06:55:09.680Z,35.22
2018-08-22T06:55:50.503Z,35.18
2018-08-22T06:56:31.395Z,35.23
2018-08-22T06:57:12.385Z,35.14
2018-08-22T06:57:53.175Z,35.15
2018-08-22T06:58:33.946Z,35.11
2018-08-22T06:59:14.708Z,35.09
2018-08-22T06:59:55.507Z,35.09
2018-08-22T07:00:36.302Z,35.21
2018-08-22T07:01:17.109Z,35.19
2018-08-22T07:01:57.987Z,35.47
2018-08-22T07:02:38.862Z,35.48
2018-08-22T07:03:19.636Z,35.43
2018-08-22T07:04:00.552Z,35.6
2018-08-22T07:04:41.362Z,35.75
2018-08-22T07:05:22.132Z,35.72
2018-08-22T07:06:02.974Z,35.71
2018-08-22T07:06:43.683Z,35.75
2018-08-22T07:07:24.531Z,35.77
2018-08-22T07:08:05.396Z,35.92
2018-08-22T07:08:46.097Z,35.89
2018-08-22T07:09:26.955Z,36.01
2018-08-22T07:10:07.831Z,35.97
2018-08-22T07:10:48.678Z,35.93
2018-08-22T07:11:29.477Z,35.89
2018-08-22T07:12:10.205Z,35.99
2018-08-22T07:12:51.438Z,36.08
2018-08-22T07:13:32.233Z,36.09
2018-08-22T07:14:13.103Z,36.07
2018-08-22T07:14:53.720Z,36.17
2018-08-22T07:15:34.466Z,36.22
2018-08-22T07:16:15.411Z,36.17
2018-08-22T07:16:56.252Z,36.17
2018-08-22T07:17:37.112Z,36.15
2018-08-22T07:18:17.862Z,36.16
2018-08-22T07:18:58.625Z,36.29
2018-08-22T07:19:39.466Z,35.93
2018-08-22T07:20:20.367Z,35.92
2018-08-22T07:21:01.276Z,35.6
2018-08-22T07:21:41.949Z,35.31
2018-08-22T07:22:22.795Z,35.06
2018-08-22T07:23:03.615Z,35.07
2018-08-22T07:23:44.483Z,34.85
2018-08-22T07:24:25.282Z,34.75
2018-08-22T07:25:06.075Z,34.49
2018-08-22T07:25:46.858Z,34.4
2018-08-22T07:26:27.666Z,34.32
2018-08-22T07:27:08.397Z,34.15
2018-08-22T07:27:49.337Z,34.05
2018-08-22T07:28:30.076Z,33.84
2018-08-22T07:29:10.848Z,33.66
2018-08-22T07:29:51.788Z,33.45
2018-08-22T07:30:32.600Z,33.41
2018-08-22T07:31:13.501Z,33.37
2018-08-22T07:31:54.414Z,33.34
2018-08-22T07:32:35.240Z,33.35
2018-08-22T07:33:16.033Z,33.38
2018-08-22T07:33:56.766Z,33.26
2018-08-22T07:34:37.504Z,33.15
2018-08-22T07:35:18.297Z,33.12
2018-08-22T07:35:59.180Z,33
2018-08-22T07:36:39.951Z,32.93
2018-08-22T07:37:20.855Z,32.79
2018-08-22T07:38:01.592Z,32.85
2018-08-22T07:38:42.341Z,32.81
2018-08-22T07:39:23.183Z,32.65
2018-08-22T07:40:03.961Z,32.47
2018-08-22T07:40:44.773Z,32.47
2018-08-22T07:41:25.574Z,32.29
2018-08-22T07:42:06.374Z,32.08
2018-08-22T07:42:47.490Z,32.08
2018-08-22T07:43:28.622Z,31.96
2018-08-22T07:44:09.393Z,32.01
2018-08-22T07:44:50.277Z,31.91
2018-08-22T07:45:31.142Z,31.69
2018-08-22T07:46:11.971Z,31.56
2018-08-22T07:46:52.665Z,31.61
2018-08-22T07:47:33.440Z,31.54
2018-08-22T07:48:14.281Z,31.46
2018-08-22T07:48:55.001Z,31.41
2018-08-22T07:49:35.707Z,31.28
2018-08-22T07:50:16.528Z,31.25
2018-08-22T07:50:57.397Z,31.19
2018-08-22T07:51:38.244Z,31.16
2018-08-22T07:52:19.099Z,31.14
2018-08-22T07:52:59.853Z,31.1
2018-08-22T07:53:40.560Z,31.02
2018-08-22T07:54:21.300Z,30.99
2018-08-22T07:55:02.022Z,30.98
2018-08-22T07:55:42.842Z,30.88
2018-08-22T07:56:23.666Z,30.79
2018-08-22T07:57:04.485Z,30.73
2018-08-22T07:57:45.385Z,30.76
2018-08-22T07:58:26.300Z,30.75
2018-08-22T07:59:07.099Z,30.69
2018-08-22T07:59:47.902Z,30.69
2018-08-22T08:00:28.625Z,30.62
2018-08-22T08:01:09.349Z,30.65
2018-08-22T08:01:50.219Z,30.57
2018-08-22T08:02:30.990Z,30.57
2018-08-22T08:03:11.779Z,30.55
2018-08-22T08:03:52.644Z,30.46
2018-08-22T08:04:33.411Z,30.46
2018-08-22T08:05:14.430Z,30.39
2018-08-22T08:05:55.310Z,30.38
2018-08-22T08:06:35.988Z,30.47
2018-08-22T08:07:16.767Z,30.39
2018-08-22T08:07:57.558Z,30.39
2018-08-22T08:08:38.476Z,30.43
2018-08-22T08:09:19.180Z,30.37
2018-08-22T08:10:00.059Z,30.38
2018-08-22T08:10:40.815Z,30.32
2018-08-22T08:11:21.539Z,30.31
2018-08-22T08:12:02.344Z,30.27
2018-08-22T08:12:43.109Z,30.24
2018-08-22T08:13:23.951Z,30.22
2018-08-22T08:14:04.777Z,30.19
2018-08-22T08:14:45.560Z,30.17
2018-08-22T08:15:26.362Z,30.19
2018-08-22T08:16:07.211Z,30.04
2018-08-22T08:16:47.969Z,30.05
2018-08-22T08:17:28.713Z,30.07
2018-08-22T08:18:09.515Z,30.01
2018-08-22T08:18:50.316Z,30.1
2018-08-22T08:19:31.081Z,30.04
2018-08-22T08:20:11.833Z,30.07
2018-08-22T08:22:01.960Z,30.02
2018-08-22T08:22:42.648Z,30
2018-08-22T08:23:23.390Z,30
2018-08-22T08:24:04.192Z,30
2018-08-22T08:24:45.029Z,29.94
2018-08-22T08:25:25.908Z,29.97
2018-08-22T08:26:06.711Z,29.98
2018-08-22T08:26:47.489Z,29.94
2018-08-22T08:27:28.283Z,30
2018-08-22T08:28:09.055Z,29.97
2018-08-22T08:28:49.944Z,29.97
2018-08-22T08:29:30.716Z,29.9
2018-08-22T08:30:11.489Z,29.9
2018-08-22T08:30:52.348Z,29.92
2018-08-22T08:31:33.112Z,29.9
2018-08-22T08:32:13.851Z,29.82
2018-08-22T08:32:54.597Z,29.94
2018-08-22T08:33:35.400Z,29.82
2018-08-22T08:34:16.263Z,29.87
2018-08-22T08:34:57.120Z,29.87
2018-08-22T08:35:37.902Z,29.89
2018-08-22T08:36:18.619Z,29.76
2018-08-22T08:36:59.357Z,29.79
2018-08-22T08:37:40.111Z,29.8
2018-08-22T08:38:20.949Z,29.78
2018-08-22T08:39:01.646Z,29.71
2018-08-22T08:39:42.396Z,29.76
2018-08-22T08:40:23.169Z,29.74
2018-08-22T08:41:03.964Z,29.68
2018-08-22T08:41:44.803Z,29.67
2018-08-22T08:42:25.570Z,29.7
2018-08-22T08:43:06.320Z,29.67
2018-08-22T08:43:47.140Z,29.64
2018-08-22T08:44:27.880Z,29.67
2018-08-22T08:45:08.660Z,29.64
2018-08-22T08:45:49.432Z,29.67
2018-08-22T08:46:30.186Z,29.68
2018-08-22T08:47:11.056Z,29.67
2018-08-22T08:47:51.828Z,29.61
2018-08-22T08:48:32.687Z,29.6
2018-08-22T08:49:13.583Z,29.57